sim
Sign-in with your pilot id or email,
or register
Callsign
Passwort

Schedule Details

Flight Number: OEO8942
Departure: Nantes Atlantique Airport (LFRS) at 12:50
Arrival: Munich Airport (EDDM) at 14:45

Weather Information
Getting current METAR information for LFRS 010400Z AUTO 25004KT 9999 FEW010 BKN037 BKN046 12/12 Q1003 TEMPO 4000 SHRA SCT012 BKN030CB
Getting current METAR information for EDDM 010350Z 07001KT 0700 R08L/0800N R08R/0500N FG FEW001 03/03 Q1010 BECMG 0500 BKN001

Schedule Frequency

Route Map